Time;durP1;ratioP1;P1;durP2;ratioP2;P2;SDS_P1;SDS_P2;PMS_P1;PMS_P2;Temp;Humidity;BMP_temperature;BMP_pressure;BME280_temperature;BME280_humidity;BME280_pressure;Samples;Min_cycle;Max_cycle;Signal;HPM_P1;HPM_P2
2023/01/30 06:00:29;;;;;;;12.43;10.67;;;1.00;97.20;;;;;;1700709;29;20191;-69
2023/01/30 06:01:20;;;;;;;11.55;10.40;;;1.00;97.20;;;;;;1700353;29;20243;-69
2023/01/30 06:02:12;;;;;;;10.48;9.38;;;1.00;97.20;;;;;;1700720;29;20405;-69
2023/01/30 06:03:03;;;;;;;12.80;11.38;;;1.00;97.20;;;;;;1700467;29;20209;-69
2023/01/30 06:03:55;;;;;;;11.57;10.37;;;1.00;97.20;;;;;;1700579;29;20217;-69
2023/01/30 06:04:46;;;;;;;11.38;9.88;;;1.00;97.20;;;;;;1699290;29;20459;-69
2023/01/30 06:05:38;;;;;;;11.17;10.07;;;1.00;97.20;;;;;;1694892;29;20196;-69
2023/01/30 06:06:29;;;;;;;11.55;10.45;;;1.00;97.20;;;;;;1694131;29;20208;-69
2023/01/30 06:07:21;;;;;;;15.10;10.70;;;1.00;97.20;;;;;;1694126;29;20666;-69
2023/01/30 06:08:12;;;;;;;12.65;10.43;;;1.10;97.20;;;;;;1694300;29;20219;-68
2023/01/30 06:09:04;;;;;;;11.65;10.45;;;1.10;97.20;;;;;;1694139;29;20279;-69
2023/01/30 06:09:55;;;;;;;12.10;10.63;;;1.10;97.20;;;;;;1694039;29;20207;-68
2023/01/30 06:10:46;;;;;;;11.03;9.90;;;1.10;97.20;;;;;;1694085;29;20224;-69
2023/01/30 06:11:37;;;;;;;12.18;10.45;;;1.10;97.20;;;;;;1700058;29;20451;-69
2023/01/30 06:12:29;;;;;;;11.50;10.37;;;1.10;97.20;;;;;;1700548;29;20209;-68
2023/01/30 06:13:19;;;;;;;11.50;10.30;;;1.10;97.20;;;;;;1700562;29;20206;-71
2023/01/30 06:14:11;;;;;;;10.90;9.90;;;1.10;97.20;;;;;;1700389;29;20207;-69
2023/01/30 06:15:02;;;;;;;13.20;11.30;;;1.10;97.20;;;;;;1698359;29;20207;-69
2023/01/30 06:15:55;;;;;;;12.07;10.77;;;1.10;97.20;;;;;;1693993;29;20291;-69
2023/01/30 06:16:45;;;;;;;11.95;10.73;;;1.00;97.20;;;;;;1694032;29;20219;-69
2023/01/30 06:17:41;;;;;;;12.77;10.70;;;1.00;97.20;;;;;;1693745;29;20206;-69
2023/01/30 06:18:32;;;;;;;11.60;10.40;;;1.00;97.20;;;;;;1693980;29;20212;-69
2023/01/30 06:19:24;;;;;;;12.33;11.10;;;1.00;97.20;;;;;;1693982;29;20688;-70
2023/01/30 06:20:15;;;;;;;12.32;10.85;;;0.90;97.20;;;;;;1693867;29;20462;-69
2023/01/30 06:21:07;;;;;;;11.67;10.43;;;0.90;97.20;;;;;;1693906;29;20206;-69
2023/01/30 06:21:58;;;;;;;13.13;10.63;;;0.90;97.20;;;;;;1693972;29;20447;-69
2023/01/30 06:22:50;;;;;;;11.47;9.60;;;0.90;97.20;;;;;;1693976;29;20210;-69
2023/01/30 06:23:41;;;;;;;11.48;10.27;;;0.90;97.20;;;;;;1693815;29;20462;-69
2023/01/30 06:24:33;;;;;;;12.20;10.90;;;0.90;97.20;;;;;;1694294;29;20211;-69
2023/01/30 06:25:24;;;;;;;11.63;10.50;;;0.80;97.20;;;;;;1695951;29;20577;-69
2023/01/30 06:26:15;;;;;;;11.27;10.07;;;0.80;97.20;;;;;;1693980;29;20204;-69
2023/01/30 06:27:06;;;;;;;11.85;10.45;;;0.80;97.20;;;;;;1697690;29;20199;-69
2023/01/30 06:27:58;;;;;;;11.03;9.43;;;0.80;97.20;;;;;;1700388;29;20202;-69
2023/01/30 06:28:48;;;;;;;11.35;10.25;;;0.80;97.20;;;;;;1700509;29;20211;-70
2023/01/30 06:29:40;;;;;;;11.33;10.03;;;0.70;97.20;;;;;;1700312;29;20210;-69
2023/01/30 06:30:31;;;;;;;12.38;9.25;;;0.80;97.20;;;;;;1700253;29;20242;-70
2023/01/30 06:31:24;;;;;;;11.50;10.40;;;0.70;97.20;;;;;;1700453;29;20209;-69
2023/01/30 06:32:15;;;;;;;12.10;10.32;;;0.70;97.20;;;;;;1700427;29;20203;-69
2023/01/30 06:33:09;;;;;;;12.70;10.90;;;0.70;97.20;;;;;;1700490;29;20210;-68
2023/01/30 06:33:59;;;;;;;11.13;9.98;;;0.70;97.20;;;;;;1700247;29;20266;-68
2023/01/30 06:34:51;;;;;;;12.07;10.77;;;0.70;97.20;;;;;;1698935;29;20203;-69
2023/01/30 06:35:43;;;;;;;12.15;9.93;;;0.70;97.20;;;;;;1693973;29;20444;-68
2023/01/30 06:36:35;;;;;;;11.98;10.70;;;0.70;97.20;;;;;;1693767;29;20208;-68
2023/01/30 06:37:25;;;;;;;11.50;10.30;;;0.70;97.20;;;;;;1693979;29;20584;-68
2023/01/30 06:38:19;;;;;;;10.80;9.70;;;0.70;97.20;;;;;;1693961;29;20514;-68
2023/01/30 06:39:10;;;;;;;13.68;10.63;;;0.60;97.20;;;;;;1693049;29;20352;-69
2023/01/30 06:40:01;;;;;;;10.53;9.07;;;0.70;97.20;;;;;;1693597;29;20225;-68
2023/01/30 06:40:52;;;;;;;12.32;9.70;;;0.70;97.20;;;;;;1693706;29;20758;-68
2023/01/30 06:41:44;;;;;;;10.93;9.73;;;0.70;97.20;;;;;;1694241;29;20702;-68
2023/01/30 06:42:35;;;;;;;10.68;9.57;;;0.70;97.20;;;;;;1695137;29;20204;-68
2023/01/30 06:43:26;;;;;;;11.90;10.50;;;0.70;97.20;;;;;;1693609;29;20204;-68
2023/01/30 06:44:18;;;;;;;10.50;9.25;;;0.70;97.20;;;;;;1693731;29;20208;-68
2023/01/30 06:45:10;;;;;;;11.02;9.80;;;0.70;97.20;;;;;;1694228;29;20595;-68
2023/01/30 06:46:01;;;;;;;10.80;9.40;;;0.80;97.20;;;;;;1697306;29;20679;-68
2023/01/30 06:46:53;;;;;;;10.55;9.52;;;0.80;97.20;;;;;;1700757;29;20207;-70
2023/01/30 06:47:46;;;;;;;10.75;9.40;;;0.80;97.20;;;;;;1698468;29;20828;-69
2023/01/30 06:48:37;;;;;;;11.15;9.85;;;0.80;97.20;;;;;;1700110;29;20206;-68
2023/01/30 06:49:29;;;;;;;10.70;9.60;;;0.90;97.20;;;;;;1700126;29;20230;-68
2023/01/30 06:50:21;;;;;;;11.27;10.18;;;0.90;97.20;;;;;;1700312;29;20231;-69
2023/01/30 06:51:13;;;;;;;10.10;9.00;;;0.90;97.20;;;;;;1700345;29;20202;-69
2023/01/30 06:52:04;;;;;;;10.10;8.98;;;0.90;97.20;;;;;;1700343;29;20200;-68
2023/01/30 06:52:56;;;;;;;12.00;10.70;;;0.90;97.20;;;;;;1700234;29;20199;-69
2023/01/30 06:53:47;;;;;;;10.57;9.57;;;0.90;97.20;;;;;;1696697;29;20665;-68
2023/01/30 06:54:39;;;;;;;10.87;9.80;;;0.90;97.20;;;;;;1693466;29;20550;-69
2023/01/30 06:55:33;;;;;;;10.68;9.57;;;0.90;97.20;;;;;;1693794;29;20223;-68
2023/01/30 06:56:24;;;;;;;10.80;9.65;;;0.90;97.20;;;;;;1693732;29;20240;-68
2023/01/30 06:57:15;;;;;;;10.68;9.45;;;0.90;97.20;;;;;;1693608;29;20587;-69
2023/01/30 06:58:09;;;;;;;11.13;10.03;;;0.90;97.20;;;;;;1693782;29;20572;-69
2023/01/30 06:59:00;;;;;;;11.07;9.98;;;0.90;97.20;;;;;;1699435;29;20609;-69
2023/01/30 06:59:51;;;;;;;10.73;9.50;;;0.90;97.20;;;;;;1700199;29;20691;-68
2023/01/30 07:00:42;;;;;;;12.10;10.45;;;0.90;97.20;;;;;;1700283;29;20593;-69
2023/01/30 07:01:34;;;;;;;11.93;10.10;;;0.90;97.20;;;;;;1700279;29;20563;-69
2023/01/30 07:02:29;;;;;;;11.25;10.05;;;0.80;97.20;;;;;;1700310;29;20962;-69
2023/01/30 07:03:20;;;;;;;11.30;10.15;;;0.80;97.20;;;;;;1700241;29;20246;-69
2023/01/30 07:04:11;;;;;;;11.02;9.65;;;0.80;97.20;;;;;;1699669;29;20261;-70
2023/01/30 07:05:05;;;;;;;12.47;10.93;;;0.70;97.20;;;;;;1700036;29;20210;-69
2023/01/30 07:05:56;;;;;;;11.00;9.70;;;0.70;97.20;;;;;;1700452;29;20657;-69
2023/01/30 07:06:48;;;;;;;10.73;9.63;;;0.70;97.20;;;;;;1700717;29;20658;-69
2023/01/30 07:07:39;;;;;;;11.73;10.43;;;0.70;97.20;;;;;;1700253;29;20731;-69
2023/01/30 07:08:31;;;;;;;11.07;9.97;;;0.70;97.20;;;;;;1699978;29;20633;-69
2023/01/30 07:09:21;;;;;;;10.55;9.55;;;0.70;97.20;;;;;;1700544;29;20210;-69
2023/01/30 07:10:13;;;;;;;11.07;9.10;;;0.70;97.20;;;;;;1700365;29;20689;-69
2023/01/30 07:11:04;;;;;;;11.52;10.07;;;0.70;97.20;;;;;;1694153;29;20238;-69
2023/01/30 07:11:56;;;;;;;11.70;10.20;;;0.70;97.20;;;;;;1696753;29;20250;-68
2023/01/30 07:12:47;;;;;;;10.73;9.63;;;0.70;97.20;;;;;;1699919;29;20203;-68
2023/01/30 07:13:38;;;;;;;11.30;10.10;;;0.80;97.20;;;;;;1699967;29;20203;-68
2023/01/30 07:14:29;;;;;;;12.07;10.00;;;0.80;97.20;;;;;;1700439;29;20210;-68
2023/01/30 07:15:21;;;;;;;11.80;10.27;;;0.80;97.20;;;;;;1700555;29;20203;-68
2023/01/30 07:16:11;;;;;;;11.18;9.95;;;0.80;97.20;;;;;;1700664;29;20211;-68
2023/01/30 07:17:03;;;;;;;10.53;9.43;;;0.90;97.20;;;;;;1700646;29;20202;-68
2023/01/30 07:17:55;;;;;;;10.60;9.50;;;0.90;97.20;;;;;;1700650;29;20206;-68
2023/01/30 07:18:47;;;;;;;11.00;9.25;;;0.90;97.20;;;;;;1700729;29;20665;-69
2023/01/30 07:19:38;;;;;;;11.65;10.32;;;0.90;97.20;;;;;;1700522;29;20214;-68
2023/01/30 07:20:30;;;;;;;10.97;9.73;;;1.00;97.20;;;;;;1700604;29;20217;-69
2023/01/30 07:21:20;;;;;;;10.07;9.05;;;1.00;97.20;;;;;;1700691;29;20211;-68
2023/01/30 07:22:12;;;;;;;12.10;10.10;;;1.00;97.20;;;;;;1700542;29;20313;-69
2023/01/30 07:23:03;;;;;;;10.25;9.25;;;1.00;97.20;;;;;;1700856;29;20735;-68
2023/01/30 07:23:55;;;;;;;10.47;8.93;;;1.10;97.20;;;;;;1700512;29;20573;-68
2023/01/30 07:24:45;;;;;;;11.60;9.75;;;1.10;97.20;;;;;;1699930;29;20447;-68
2023/01/30 07:25:37;;;;;;;11.07;9.97;;;1.10;97.20;;;;;;1700642;29;20657;-68
2023/01/30 07:26:30;;;;;;;11.65;9.60;;;1.10;97.20;;;;;;1700722;29;20220;-68
2023/01/30 07:27:21;;;;;;;12.25;10.05;;;1.10;97.20;;;;;;1700481;29;20226;-68
2023/01/30 07:28:12;;;;;;;10.70;9.57;;;1.10;97.20;;;;;;1700598;29;20689;-68
2023/01/30 07:29:04;;;;;;;10.97;9.93;;;1.10;97.20;;;;;;1700098;29;20568;-69
2023/01/30 07:29:54;;;;;;;10.85;9.77;;;1.10;97.20;;;;;;1700528;29;20210;-68
2023/01/30 07:30:46;;;;;;;10.80;9.70;;;1.20;97.20;;;;;;1700293;29;20223;-68
2023/01/30 07:31:37;;;;;;;11.43;9.93;;;1.20;97.20;;;;;;1700364;29;20304;-69
2023/01/30 07:32:28;;;;;;;11.17;9.60;;;1.20;97.20;;;;;;1700582;29;20214;-68
2023/01/30 07:33:20;;;;;;;10.45;9.35;;;1.20;97.20;;;;;;1700474;29;20206;-68
2023/01/30 07:34:12;;;;;;;10.70;9.60;;;1.30;97.20;;;;;;1700366;29;20207;-69
2023/01/30 07:35:03;;;;;;;10.27;9.18;;;1.30;97.20;;;;;;1700737;29;20616;-68
2023/01/30 07:35:55;;;;;;;12.40;10.23;;;1.30;97.20;;;;;;1700597;29;20242;-68
2023/01/30 07:36:46;;;;;;;12.10;10.30;;;1.30;97.20;;;;;;1700627;29;20591;-68
2023/01/30 07:37:38;;;;;;;12.37;10.03;;;1.30;97.20;;;;;;1700539;29;20199;-68
2023/01/30 07:38:29;;;;;;;10.60;9.50;;;1.30;97.20;;;;;;1700866;29;20211;-68
2023/01/30 07:39:20;;;;;;;10.38;9.27;;;1.30;97.20;;;;;;1700629;29;20615;-68
2023/01/30 07:40:13;;;;;;;11.27;8.97;;;1.30;97.20;;;;;;1700207;29;20571;-68
2023/01/30 07:41:04;;;;;;;10.70;9.63;;;1.30;97.20;;;;;;1700611;29;20211;-68
2023/01/30 07:41:56;;;;;;;10.70;9.27;;;1.30;97.20;;;;;;1700519;29;20242;-68
2023/01/30 07:42:55;;;;;;;13.35;10.88;;;1.30;97.20;;;;;;1700639;29;20214;-69
2023/01/30 07:43:48;;;;;;;10.23;9.10;;;1.30;97.20;;;;;;1700652;29;20207;-69
2023/01/30 07:44:39;;;;;;;10.02;9.02;;;1.30;97.20;;;;;;1700336;29;20234;-69
2023/01/30 07:45:36;;;;;;;10.80;9.40;;;1.30;97.20;;;;;;1700536;29;20208;-68
2023/01/30 07:46:33;;;;;;;11.60;9.95;;;1.30;97.20;;;;;;1700650;29;20218;-69
2023/01/30 07:47:25;;;;;;;10.27;9.13;;;1.30;97.20;;;;;;1700640;29;20661;-68
2023/01/30 07:48:17;;;;;;;10.30;9.18;;;1.30;97.20;;;;;;1700593;29;20203;-69
2023/01/30 07:49:10;;;;;;;10.15;9.15;;;1.30;97.20;;;;;;1700738;29;20214;-68
2023/01/30 07:50:01;;;;;;;10.88;9.77;;;1.30;97.20;;;;;;1700586;29;20214;-68
2023/01/30 07:50:56;;;;;;;10.63;9.20;;;1.30;97.20;;;;;;1700466;29;20226;-68
2023/01/30 07:51:47;;;;;;;11.45;10.25;;;1.30;97.20;;;;;;1700627;29;20474;-69
2023/01/30 07:52:38;;;;;;;10.40;9.30;;;1.30;97.20;;;;;;1700540;29;20227;-68
2023/01/30 07:53:29;;;;;;;12.32;10.35;;;1.30;97.20;;;;;;1700497;29;20607;-68
2023/01/30 07:54:21;;;;;;;10.60;9.00;;;1.40;97.20;;;;;;1700248;29;20544;-68
2023/01/30 07:55:12;;;;;;;9.40;8.50;;;1.40;97.20;;;;;;1700531;29;20223;-68
2023/01/30 07:56:07;;;;;;;10.90;9.80;;;1.40;97.20;;;;;;1700237;29;20214;-68
2023/01/30 07:56:57;;;;;;;10.65;9.50;;;1.40;97.20;;;;;;1700601;29;20960;-68
2023/01/30 07:57:49;;;;;;;9.90;8.90;;;1.40;97.20;;;;;;1700610;29;20695;-68
2023/01/30 07:58:41;;;;;;;10.95;9.85;;;1.40;97.20;;;;;;1700609;29;20211;-68
2023/01/30 07:59:31;;;;;;;10.02;9.02;;;1.40;97.20;;;;;;1700513;29;20242;-68
2023/01/30 08:00:23;;;;;;;10.60;9.37;;;1.40;97.20;;;;;;1700524;29;20206;-68
2023/01/30 08:01:14;;;;;;;11.60;10.40;;;1.40;97.20;;;;;;1700444;29;20222;-68
2023/01/30 08:02:08;;;;;;;10.90;9.80;;;1.40;97.20;;;;;;1700575;29;20213;-68
2023/01/30 08:02:59;;;;;;;10.75;9.35;;;1.40;97.20;;;;;;1700509;29;20458;-68
2023/01/30 08:03:51;;;;;;;9.60;8.50;;;1.40;97.20;;;;;;1700478;29;20199;-68
2023/01/30 08:04:44;;;;;;;10.98;9.20;;;1.40;97.20;;;;;;1700390;29;20203;-68
2023/01/30 08:05:35;;;;;;;10.18;9.07;;;1.40;97.20;;;;;;1700352;29;20269;-69
2023/01/30 08:06:27;;;;;;;10.10;8.57;;;1.40;97.20;;;;;;1700479;29;20266;-68
2023/01/30 08:07:18;;;;;;;12.23;9.85;;;1.40;97.20;;;;;;1700441;29;20564;-68
2023/01/30 08:08:09;;;;;;;12.95;10.52;;;1.40;97.20;;;;;;1700543;29;20725;-68
2023/01/30 08:09:00;;;;;;;11.60;10.40;;;1.40;97.20;;;;;;1700995;29;20206;-68
2023/01/30 08:09:52;;;;;;;12.30;10.23;;;1.40;97.20;;;;;;1701688;29;20217;-68
2023/01/30 08:10:44;;;;;;;10.43;9.25;;;1.40;97.20;;;;;;1701655;29;20597;-68
2023/01/30 08:11:34;;;;;;;12.75;9.95;;;1.50;97.20;;;;;;1701590;29;20203;-68
2023/01/30 08:12:26;;;;;;;12.20;10.17;;;1.50;97.20;;;;;;1701683;29;20199;-68
2023/01/30 08:13:17;;;;;;;11.93;9.45;;;1.60;97.20;;;;;;1701553;29;20211;-68
2023/01/30 08:14:08;;;;;;;11.90;9.97;;;1.60;97.20;;;;;;1701439;29;20242;-68
2023/01/30 08:14:59;;;;;;;12.02;9.73;;;1.70;97.20;;;;;;1701641;29;20223;-68
2023/01/30 08:15:51;;;;;;;10.60;9.50;;;1.80;97.20;;;;;;1701578;29;20199;-68
2023/01/30 08:16:42;;;;;;;11.57;9.73;;;1.90;97.20;;;;;;1701707;29;20917;-69
2023/01/30 08:17:33;;;;;;;12.10;10.03;;;2.00;97.20;;;;;;1701809;29;20203;-68
2023/01/30 08:18:24;;;;;;;11.20;10.10;;;2.00;97.20;;;;;;1701639;29;20211;-68
2023/01/30 08:19:16;;;;;;;9.97;9.00;;;2.10;97.20;;;;;;1701644;29;20203;-68
2023/01/30 08:20:10;;;;;;;10.38;9.00;;;2.20;97.20;;;;;;1701647;29;20207;-68
2023/01/30 08:21:03;;;;;;;10.77;9.68;;;2.20;97.20;;;;;;1701740;29;20491;-68
2023/01/30 08:21:55;;;;;;;9.95;9.05;;;2.30;97.20;;;;;;1701635;29;20340;-68
2023/01/30 08:22:45;;;;;;;9.85;8.25;;;2.30;97.20;;;;;;1701596;29;20231;-68
2023/01/30 08:23:37;;;;;;;9.77;8.77;;;2.30;97.20;;;;;;1701691;29;20203;-68
2023/01/30 08:24:29;;;;;;;9.65;8.57;;;2.30;97.20;;;;;;1701308;29;20211;-68
2023/01/30 08:25:22;;;;;;;10.57;9.48;;;2.30;97.20;;;;;;1701592;29;20620;-68
2023/01/30 08:26:14;;;;;;;11.88;9.90;;;2.30;97.20;;;;;;1701548;29;20251;-69
2023/01/30 08:27:04;;;;;;;9.80;8.75;;;2.30;97.20;;;;;;1701624;29;20214;-68
2023/01/30 08:27:58;;;;;;;9.33;8.40;;;2.30;97.20;;;;;;1701329;29;20199;-68
2023/01/30 08:28:49;;;;;;;8.85;7.95;;;2.30;97.20;;;;;;1701428;29;20455;-68
2023/01/30 08:29:41;;;;;;;9.00;8.10;;;2.30;97.20;;;;;;1701663;29;20199;-68
2023/01/30 08:30:32;;;;;;;10.27;9.15;;;2.20;97.20;;;;;;1701367;29;20234;-68
2023/01/30 08:31:23;;;;;;;10.40;9.40;;;2.20;97.20;;;;;;1701580;29;20209;-68
2023/01/30 08:32:14;;;;;;;11.10;8.93;;;2.20;97.20;;;;;;1701642;29;20470;-68
2023/01/30 08:33:06;;;;;;;10.47;9.07;;;2.30;97.20;;;;;;1701589;29;20202;-68
2023/01/30 08:33:56;;;;;;;10.75;8.70;;;2.20;97.20;;;;;;1701550;29;20200;-68
2023/01/30 08:34:48;;;;;;;11.60;10.00;;;2.30;97.20;;;;;;1701347;29;20207;-68
2023/01/30 08:35:40;;;;;;;10.02;8.98;;;2.20;97.20;;;;;;1701582;29;20215;-68
2023/01/30 08:36:32;;;;;;;10.50;9.40;;;2.20;97.20;;;;;;1701661;29;20214;-68
2023/01/30 08:37:23;;;;;;;10.32;9.25;;;2.30;97.20;;;;;;1701520;29;20211;-68
2023/01/30 08:38:15;;;;;;;9.63;8.43;;;2.30;97.20;;;;;;1701530;29;20497;-68
2023/01/30 08:39:05;;;;;;;8.27;7.47;;;2.30;97.20;;;;;;1701562;29;20208;-68
2023/01/30 08:39:57;;;;;;;9.70;8.60;;;2.40;97.20;;;;;;1701642;29;20211;-68
2023/01/30 08:40:48;;;;;;;9.40;8.50;;;2.40;97.20;;;;;;1701480;29;20227;-68
2023/01/30 08:41:41;;;;;;;9.00;7.67;;;2.50;97.20;;;;;;1701549;29;20203;-68
2023/01/30 08:42:32;;;;;;;10.02;9.02;;;2.60;97.20;;;;;;1701462;29;20230;-69
2023/01/30 08:43:24;;;;;;;10.70;8.87;;;2.60;97.20;;;;;;1701262;29;20293;-68
2023/01/30 08:44:16;;;;;;;8.93;7.90;;;2.70;97.20;;;;;;1701274;29;20585;-69
2023/01/30 08:45:07;;;;;;;10.27;9.27;;;2.80;97.20;;;;;;1701528;29;20216;-69
2023/01/30 08:45:59;;;;;;;10.25;9.00;;;2.90;97.20;;;;;;1701455;29;20203;-69
2023/01/30 08:46:50;;;;;;;10.23;8.63;;;3.00;97.20;;;;;;1701546;29;20215;-68
2023/01/30 08:47:42;;;;;;;9.57;8.47;;;3.10;97.20;;;;;;1701536;29;20195;-68
2023/01/30 08:48:32;;;;;;;10.00;8.25;;;3.20;97.20;;;;;;1701421;29;20200;-68
2023/01/30 08:49:24;;;;;;;10.77;9.67;;;3.30;97.20;;;;;;1701490;29;20207;-68
2023/01/30 08:50:15;;;;;;;9.93;8.40;;;3.50;97.20;;;;;;1701402;29;20454;-68
2023/01/30 08:51:08;;;;;;;10.05;8.95;;;3.60;97.20;;;;;;1701428;29;20282;-68
2023/01/30 08:51:59;;;;;;;9.75;8.68;;;3.70;97.20;;;;;;1701496;29;20267;-68
2023/01/30 08:52:50;;;;;;;10.63;8.70;;;3.70;97.20;;;;;;1701460;29;20199;-68
2023/01/30 08:53:41;;;;;;;8.93;8.02;;;3.80;97.20;;;;;;1701347;29;20207;-69
2023/01/30 08:54:33;;;;;;;12.23;9.57;;;3.80;97.20;;;;;;1701189;29;20210;-69
2023/01/30 08:55:24;;;;;;;9.75;8.52;;;3.90;97.20;;;;;;1701472;29;20215;-68
2023/01/30 08:56:15;;;;;;;8.77;7.87;;;4.10;97.20;;;;;;1701380;29;20302;-68
2023/01/30 08:57:06;;;;;;;10.70;9.48;;;4.30;97.20;;;;;;1701489;29;20210;-69
2023/01/30 08:57:58;;;;;;;9.07;8.17;;;4.40;97.20;;;;;;1701498;29;20206;-68
2023/01/30 08:58:48;;;;;;;8.70;7.80;;;4.50;97.20;;;;;;1701449;29;20287;-68
2023/01/30 08:59:40;;;;;;;9.00;8.10;;;4.50;97.20;;;;;;1701144;29;20199;-68
2023/01/30 09:00:31;;;;;;;9.20;8.30;;;4.60;97.20;;;;;;1701308;29;20235;-68
2023/01/30 09:01:23;;;;;;;9.10;8.20;;;4.80;97.20;;;;;;1701406;29;20203;-69
2023/01/30 09:02:14;;;;;;;9.68;7.93;;;4.80;97.20;;;;;;1701419;29;20218;-68
2023/01/30 09:03:05;;;;;;;8.53;7.57;;;4.90;97.20;;;;;;1701426;29;20735;-69
2023/01/30 09:03:56;;;;;;;8.70;7.80;;;5.00;97.20;;;;;;1701385;29;20203;-68
2023/01/30 09:04:48;;;;;;;9.30;8.20;;;5.00;97.20;;;;;;1701347;29;20207;-68
2023/01/30 09:05:38;;;;;;;9.27;8.00;;;5.00;97.20;;;;;;1701296;29;20210;-69
2023/01/30 09:06:32;;;;;;;9.53;8.50;;;5.00;97.20;;;;;;1701437;29;20207;-69
2023/01/30 09:07:23;;;;;;;9.27;7.80;;;5.00;97.20;;;;;;1701435;29;20864;-68
2023/01/30 09:08:14;;;;;;;8.40;7.37;;;5.00;97.20;;;;;;1701366;29;20628;-68
2023/01/30 09:09:05;;;;;;;8.23;7.18;;;5.10;97.20;;;;;;1701427;29;20212;-69
2023/01/30 09:09:57;;;;;;;8.80;7.90;;;5.10;97.20;;;;;;1701568;29;20218;-68
2023/01/30 09:10:47;;;;;;;8.90;7.80;;;5.10;97.20;;;;;;1701404;29;20227;-69
2023/01/30 09:11:39;;;;;;;8.57;7.60;;;5.20;97.20;;;;;;1701460;29;20207;-69
2023/01/30 09:12:30;;;;;;;8.73;7.75;;;5.20;97.20;;;;;;1701509;29;20540;-69
2023/01/30 09:13:22;;;;;;;11.33;8.10;;;5.30;97.20;;;;;;1701302;29;20270;-68
2023/01/30 09:14:13;;;;;;;8.13;7.00;;;5.40;97.20;;;;;;1701003;29;20215;-69
2023/01/30 09:15:06;;;;;;;8.90;7.43;;;5.50;97.20;;;;;;1701256;29;20199;-69
2023/01/30 09:15:57;;;;;;;7.82;7.13;;;5.80;97.20;;;;;;1701754;29;20454;-69
2023/01/30 09:16:54;;;;;;;9.10;7.57;;;6.10;97.20;;;;;;1701348;29;20203;-69
2023/01/30 09:17:45;;;;;;;8.30;7.40;;;6.70;97.20;;;;;;1701337;29;20207;-68
2023/01/30 09:18:38;;;;;;;9.13;7.97;;;7.60;97.20;;;;;;1701461;29;20278;-68
2023/01/30 09:19:29;;;;;;;9.40;7.40;;;8.80;97.20;;;;;;1701167;29;20219;-69
2023/01/30 09:20:21;;;;;;;8.23;7.43;;;10.00;97.20;;;;;;1700968;29;20283;-69
2023/01/30 09:21:12;;;;;;;10.13;7.70;;;11.10;97.20;;;;;;1701283;29;20447;-69
2023/01/30 09:22:07;;;;;;;8.68;7.78;;;12.10;97.20;;;;;;1701325;29;20196;-69
2023/01/30 09:22:57;;;;;;;8.40;7.60;;;13.10;97.20;;;;;;1701152;29;20223;-69
2023/01/30 09:23:49;;;;;;;9.80;8.10;;;14.00;97.20;;;;;;1701247;29;20203;-69
2023/01/30 09:24:40;;;;;;;7.22;6.53;;;14.80;97.20;;;;;;1701010;29;20214;-69
2023/01/30 09:25:32;;;;;;;7.93;7.13;;;15.60;97.20;;;;;;1701144;29;20209;-69
2023/01/30 09:26:23;;;;;;;8.48;7.53;;;16.30;97.20;;;;;;1701279;29;20214;-69
2023/01/30 09:27:14;;;;;;;8.23;7.40;;;16.90;97.20;;;;;;1701224;29;20462;-69
2023/01/30 09:28:05;;;;;;;7.60;6.90;;;17.70;97.20;;;;;;1701326;29;20457;-69
2023/01/30 09:28:57;;;;;;;7.50;6.80;;;18.30;97.20;;;;;;1701213;29;20661;-69
2023/01/30 09:29:48;;;;;;;8.48;7.63;;;18.90;97.20;;;;;;1701200;29;20772;-69
2023/01/30 09:30:39;;;;;;;7.23;6.40;;;19.70;97.20;;;;;;1700737;29;20235;-69
2023/01/30 09:31:30;;;;;;;7.60;6.90;;;19.70;97.20;;;;;;1701051;29;20479;-69
2023/01/30 09:32:23;;;;;;;7.50;6.70;;;19.00;97.20;;;;;;1701289;29;20207;-69
2023/01/30 09:33:15;;;;;;;6.75;6.15;;;17.90;97.20;;;;;;1701097;29;20199;-69
2023/01/30 09:34:07;;;;;;;8.23;6.28;;;16.60;97.20;;;;;;1700951;29;20258;-69
2023/01/30 09:34:58;;;;;;;7.63;6.82;;;15.20;97.20;;;;;;1701142;29;20215;-68
2023/01/30 09:35:50;;;;;;;6.90;6.27;;;13.90;97.20;;;;;;1701145;29;20207;-70
2023/01/30 09:36:42;;;;;;;7.18;6.47;;;12.70;97.20;;;;;;1701200;29;20665;-69
2023/01/30 09:37:34;;;;;;;6.97;5.75;;;11.70;97.20;;;;;;1701159;29;20207;-69
2023/01/30 09:38:25;;;;;;;6.25;5.65;;;10.80;97.20;;;;;;1701153;29;20211;-69
2023/01/30 09:39:16;;;;;;;7.68;6.88;;;10.10;97.20;;;;;;1701180;29;20207;-69
2023/01/30 09:40:15;;;;;;;7.33;6.30;;;9.50;97.20;;;;;;1701217;29;20214;-69
2023/01/30 09:41:34;;;;;;;6.97;6.32;;;8.80;97.20;;;;;;1701174;29;20645;-69
2023/01/30 09:43:02;;;;;;;7.35;6.32;;;8.20;97.20;;;;;;1701304;29;20238;-69
2023/01/30 09:44:10;;;;;;;6.82;6.22;;;7.60;97.20;;;;;;1701103;29;20211;-69
2023/01/30 09:45:33;;;;;;;7.50;6.63;;;7.10;97.20;;;;;;1701164;29;20246;-68
2023/01/30 09:46:35;;;;;;;7.97;6.85;;;6.70;97.20;;;;;;1689534;29;20215;-68
2023/01/30 09:47:38;;;;;;;7.15;6.40;;;6.40;97.20;;;;;;1700977;29;20577;-69
2023/01/30 09:48:34;;;;;;;6.60;5.90;;;6.20;97.20;;;;;;1701242;29;20250;-69
2023/01/30 09:49:31;;;;;;;7.55;6.22;;;6.00;97.20;;;;;;1701143;29;20234;-69
2023/01/30 09:50:39;;;;;;;6.85;6.00;;;5.80;97.20;;;;;;1701062;29;20207;-69
2023/01/30 09:51:46;;;;;;;6.75;6.05;;;5.70;97.20;;;;;;1701232;29;20218;-69
2023/01/30 09:52:50;;;;;;;7.22;6.10;;;5.60;97.20;;;;;;1701062;29;20208;-69
2023/01/30 09:54:09;;;;;;;6.57;5.72;;;5.50;97.20;;;;;;1701039;29;20208;-69
2023/01/30 09:55:10;;;;;;;6.82;6.22;;;5.40;97.20;;;;;;1701150;29;20242;-69
2023/01/30 09:56:01;;;;;;;6.80;6.10;;;5.40;97.20;;;;;;1701047;29;20210;-69
2023/01/30 09:57:01;;;;;;;6.73;5.77;;;5.40;97.20;;;;;;1701041;29;20207;-69
2023/01/30 09:57:53;;;;;;;6.43;5.82;;;5.40;97.20;;;;;;1701037;29;20447;-69
2023/01/30 09:58:47;;;;;;;6.05;5.45;;;5.40;97.20;;;;;;1701133;29;20650;-69
2023/01/30 09:59:49;;;;;;;6.30;5.70;;;5.40;97.20;;;;;;1700966;29;20213;-69
2023/01/30 10:00:41;;;;;;;6.00;5.40;;;5.50;97.20;;;;;;1700831;29;20265;-68
2023/01/30 10:01:39;;;;;;;6.25;5.60;;;5.60;97.20;;;;;;1701039;29;20294;-69
2023/01/30 10:02:40;;;;;;;7.53;5.70;;;5.60;97.20;;;;;;1701033;29;20207;-69
2023/01/30 10:03:39;;;;;;;6.72;5.72;;;5.70;97.20;;;;;;1700874;29;20246;-69
2023/01/30 10:04:34;;;;;;;6.53;5.72;;;5.80;97.20;;;;;;1700815;29;20234;-68
2023/01/30 10:05:33;;;;;;;8.38;5.90;;;5.90;97.20;;;;;;1701011;29;20219;-69
2023/01/30 10:06:23;;;;;;;6.65;5.45;;;6.00;97.20;;;;;;1700997;29;20585;-69
2023/01/30 10:07:20;;;;;;;6.40;5.70;;;6.20;97.20;;;;;;1701165;29;20195;-68
2023/01/30 10:08:40;;;;;;;6.85;6.18;;;6.60;97.20;;;;;;1701063;29;20613;-69
2023/01/30 10:09:40;;;;;;;6.88;6.28;;;7.30;97.20;;;;;;1700989;29;20203;-69
2023/01/30 10:10:47;;;;;;;5.45;4.85;;;7.90;97.20;;;;;;1700877;29;20559;-68
2023/01/30 10:11:51;;;;;;;6.22;5.60;;;8.50;97.20;;;;;;1701036;29;20274;-69
2023/01/30 10:12:53;;;;;;;5.80;5.20;;;8.70;97.20;;;;;;1700979;29;20204;-69
2023/01/30 10:14:07;;;;;;;6.60;5.90;;;9.10;97.20;;;;;;1701019;29;20211;-69
2023/01/30 10:15:28;;;;;;;5.60;5.07;;;9.10;97.20;;;;;;1700934;29;20210;-69
2023/01/30 10:16:25;;;;;;;5.72;5.10;;;8.80;97.20;;;;;;1700800;29;20262;-69
2023/01/30 10:17:31;;;;;;;6.43;5.82;;;8.60;97.20;;;;;;1700701;29;20218;-69
2023/01/30 10:18:48;;;;;;;5.90;5.10;;;8.30;97.20;;;;;;1700629;29;20286;-69
2023/01/30 10:19:53;;;;;;;6.60;5.80;;;7.80;97.20;;;;;;1700923;29;20215;-69
2023/01/30 10:20:55;;;;;;;6.72;5.50;;;7.50;97.20;;;;;;1700542;29;20238;-69
2023/01/30 10:21:53;;;;;;;7.13;5.75;;;7.40;97.20;;;;;;1700969;29;20207;-69
2023/01/30 10:22:53;;;;;;;6.07;5.47;;;7.30;97.20;;;;;;1701016;29;20215;-69
2023/01/30 10:24:02;;;;;;;7.20;6.50;;;7.20;97.20;;;;;;1700923;29;20203;-69
2023/01/30 10:25:03;;;;;;;6.78;6.07;;;7.20;97.20;;;;;;1700879;29;20208;-69
2023/01/30 10:25:57;;;;;;;5.90;5.30;;;7.10;97.20;;;;;;1700865;29;20689;-69
2023/01/30 10:26:48;;;;;;;6.32;5.60;;;7.10;97.20;;;;;;1700910;29;20253;-69
2023/01/30 10:27:46;;;;;;;6.40;5.70;;;7.00;97.20;;;;;;1700883;29;20210;-69
2023/01/30 10:28:41;;;;;;;6.68;5.82;;;6.90;97.20;;;;;;1700953;29;20204;-69
2023/01/30 10:29:37;;;;;;;6.65;5.95;;;6.90;97.20;;;;;;1700951;29;20199;-69
2023/01/30 10:30:29;;;;;;;8.18;7.35;;;6.80;97.20;;;;;;1701043;29;20239;-69
2023/01/30 10:31:25;;;;;;;6.75;5.53;;;6.80;97.20;;;;;;1700598;29;20258;-69
2023/01/30 10:32:19;;;;;;;6.70;5.65;;;6.80;97.20;;;;;;1700349;29;20207;-69
2023/01/30 10:33:19;;;;;;;6.22;5.60;;;6.90;97.20;;;;;;1701101;29;20211;-69
2023/01/30 10:34:16;;;;;;;5.80;5.20;;;7.00;97.20;;;;;;1700513;29;20242;-69
2023/01/30 10:35:15;;;;;;;6.30;5.70;;;7.00;97.20;;;;;;1701179;29;20206;-69
2023/01/30 10:36:10;;;;;;;6.85;4.90;;;7.10;97.20;;;;;;1701032;29;20200;-69
2023/01/30 10:37:07;;;;;;;7.15;5.93;;;7.10;97.20;;;;;;1700872;29;20222;-69
2023/01/30 10:38:06;;;;;;;7.93;5.15;;;7.20;97.20;;;;;;1700874;29;20662;-68
2023/01/30 10:39:02;;;;;;;7.47;6.38;;;7.20;97.20;;;;;;1700844;29;20215;-69